createdAt,value
2019-01-29T00:00:03.735Z,1.87
2019-01-29T00:00:08.030Z,1.87
2019-01-29T00:00:12.331Z,1.87
2019-01-29T00:00:16.594Z,1.87
2019-01-29T00:00:20.882Z,1.87
2019-01-29T00:00:25.175Z,1.87
2019-01-29T00:00:29.509Z,1.87
2019-01-29T00:00:33.705Z,1.88
2019-01-29T00:00:38.062Z,1.87
2019-01-29T00:00:42.350Z,1.88
2019-01-29T00:00:46.644Z,1.88
2019-01-29T00:00:50.942Z,1.88
2019-01-29T00:00:55.242Z,1.87
2019-01-29T00:00:59.492Z,1.87
2019-01-29T00:01:03.789Z,1.88
2019-01-29T00:01:08.084Z,1.89
2019-01-29T00:01:12.279Z,1.88
2019-01-29T00:01:16.490Z,1.87
2019-01-29T00:01:20.786Z,1.88
2019-01-29T00:01:25.072Z,1.88
2019-01-29T00:01:29.269Z,1.88
2019-01-29T00:01:33.565Z,1.88
2019-01-29T00:01:37.863Z,1.87
2019-01-29T00:01:42.154Z,1.88
2019-01-29T00:01:46.370Z,1.88
2019-01-29T00:01:50.666Z,1.88
2019-01-29T00:01:54.952Z,1.88
2019-01-29T00:01:59.246Z,1.88
2019-01-29T00:02:03.544Z,1.87
2019-01-29T00:02:07.835Z,1.87
2019-01-29T00:02:12.023Z,1.86
2019-01-29T00:02:16.239Z,1.87
2019-01-29T00:02:20.504Z,1.87
2019-01-29T00:02:24.697Z,1.87
2019-01-29T00:02:28.990Z,1.86
2019-01-29T00:02:33.178Z,1.87
2019-01-29T00:02:37.381Z,1.87
2019-01-29T00:02:41.700Z,1.86
2019-01-29T00:02:47.682Z,1.87
2019-01-29T00:02:51.973Z,1.87
2019-01-29T00:02:55.974Z,1.86
2019-01-29T00:03:00.271Z,1.87
2019-01-29T00:03:04.466Z,1.86
2019-01-29T00:03:08.689Z,1.86
2019-01-29T00:03:12.977Z,1.87
2019-01-29T00:03:17.275Z,1.86
2019-01-29T00:03:21.559Z,1.87
2019-01-29T00:03:25.911Z,1.88
2019-01-29T00:03:30.204Z,1.87
2019-01-29T00:03:34.398Z,1.88
2019-01-29T00:03:38.704Z,1.88
2019-01-29T00:03:43.004Z,1.88
2019-01-29T00:03:47.292Z,1.88
2019-01-29T00:03:51.586Z,1.88
2019-01-29T00:03:55.711Z,1.87
2019-01-29T00:04:00.002Z,1.88
2019-01-29T00:04:04.300Z,1.88
2019-01-29T00:04:08.597Z,1.88
2019-01-29T00:04:12.899Z,1.89
2019-01-29T00:04:17.196Z,1.88
2019-01-29T00:04:21.397Z,1.88
2019-01-29T00:04:25.590Z,1.89
2019-01-29T00:04:29.882Z,1.89
2019-01-29T00:04:34.174Z,1.89
2019-01-29T00:04:38.376Z,1.88
2019-01-29T00:04:42.571Z,1.89
2019-01-29T00:04:46.763Z,1.88
2019-01-29T00:04:51.056Z,1.88
2019-01-29T00:04:55.346Z,1.88
2019-01-29T00:04:59.566Z,1.89
2019-01-29T00:05:03.863Z,1.89
2019-01-29T00:05:08.055Z,1.89
2019-01-29T00:05:12.342Z,1.9
2019-01-29T00:05:16.534Z,1.9
2019-01-29T00:05:20.898Z,1.89
2019-01-29T00:05:25.187Z,1.9
2019-01-29T00:05:29.390Z,1.89
2019-01-29T00:05:33.687Z,1.89
2019-01-29T00:05:37.886Z,1.9
2019-01-29T00:05:42.172Z,1.9
2019-01-29T00:05:46.362Z,1.9
2019-01-29T00:05:50.656Z,1.9
2019-01-29T00:05:54.947Z,1.9
2019-01-29T00:05:59.236Z,1.9
2019-01-29T00:06:03.538Z,1.91
2019-01-29T00:06:09.689Z,1.9
2019-01-29T00:06:13.984Z,1.91
2019-01-29T00:06:18.283Z,1.9
2019-01-29T00:06:22.575Z,1.91
2019-01-29T00:06:26.770Z,1.91
2019-01-29T00:06:31.135Z,1.91
2019-01-29T00:06:35.426Z,1.92
2019-01-29T00:06:39.735Z,1.92
2019-01-29T00:06:43.944Z,1.92
2019-01-29T00:06:48.278Z,1.91
2019-01-29T00:06:52.565Z,1.91
2019-01-29T00:06:56.859Z,1.92
2019-01-29T00:07:01.150Z,1.93
2019-01-29T00:07:05.349Z,1.92
2019-01-29T00:07:09.580Z,1.94
2019-01-29T00:07:13.771Z,1.93
2019-01-29T00:07:17.864Z,1.92
2019-01-29T00:07:22.063Z,1.93
2019-01-29T00:07:26.256Z,1.94
2019-01-29T00:07:30.454Z,1.93
2019-01-29T00:07:34.745Z,1.94
2019-01-29T00:07:39.045Z,1.92
2019-01-29T00:07:43.342Z,1.93
2019-01-29T00:07:47.628Z,1.93
2019-01-29T00:07:51.817Z,1.93
2019-01-29T00:07:56.003Z,1.94
2019-01-29T00:08:00.201Z,1.94
2019-01-29T00:08:04.585Z,1.94
2019-01-29T00:08:08.871Z,1.93
2019-01-29T00:08:13.171Z,1.94
2019-01-29T00:08:17.273Z,1.94
2019-01-29T00:08:21.579Z,1.94
2019-01-29T00:08:25.871Z,1.95
2019-01-29T00:09:06.445Z,1.94
2019-01-29T00:09:10.668Z,1.96
2019-01-29T00:09:14.964Z,1.95
2019-01-29T00:09:19.156Z,1.96
2019-01-29T00:09:23.348Z,1.96
2019-01-29T00:09:27.565Z,1.95
2019-01-29T00:09:31.859Z,1.96
2019-01-29T00:09:36.155Z,1.94
2019-01-29T00:09:40.350Z,1.95
2019-01-29T00:09:44.637Z,1.94
2019-01-29T00:09:48.832Z,1.95
2019-01-29T00:09:53.114Z,1.95
2019-01-29T00:09:57.407Z,1.94
2019-01-29T00:10:01.700Z,1.96
2019-01-29T00:10:05.906Z,1.95
2019-01-29T00:10:10.220Z,1.95
2019-01-29T00:10:14.407Z,1.95
2019-01-29T00:10:18.702Z,1.95
2019-01-29T00:10:22.896Z,1.96
2019-01-29T00:10:27.188Z,1.95
2019-01-29T00:10:31.479Z,1.96
2019-01-29T00:10:35.775Z,1.95
2019-01-29T00:10:40.061Z,1.96
2019-01-29T00:10:44.346Z,1.96
2019-01-29T00:10:48.646Z,1.96
2019-01-29T00:10:52.875Z,1.96
2019-01-29T00:10:57.170Z,1.97
2019-01-29T00:11:01.361Z,1.96
2019-01-29T00:11:05.653Z,1.97
2019-01-29T00:11:09.948Z,1.97
2019-01-29T00:11:14.236Z,1.97
2019-01-29T00:11:18.524Z,1.97
2019-01-29T00:11:22.876Z,1.98
2019-01-29T00:11:27.159Z,1.99
2019-01-29T00:11:31.449Z,1.98
2019-01-29T00:11:35.741Z,1.98
2019-01-29T00:11:39.740Z,1.98
2019-01-29T00:11:44.034Z,1.98
2019-01-29T00:11:48.035Z,1.98
2019-01-29T00:11:52.325Z,1.98
2019-01-29T00:11:56.618Z,1.99
2019-01-29T00:12:00.906Z,1.99
2019-01-29T00:12:05.095Z,1.99
2019-01-29T00:12:09.288Z,1.99
2019-01-29T00:12:13.570Z,2
2019-01-29T00:12:17.861Z,2
2019-01-29T00:12:22.148Z,2
2019-01-29T00:12:26.507Z,2
2019-01-29T00:12:30.792Z,2.01
2019-01-29T00:12:36.901Z,2
2019-01-29T00:12:41.201Z,2.01
2019-01-29T00:12:45.401Z,2.02
2019-01-29T00:12:49.701Z,2.01
2019-01-29T00:12:53.993Z,2.02
2019-01-29T00:12:58.279Z,2.02
2019-01-29T00:13:02.575Z,2.03
2019-01-29T00:13:06.867Z,2.03
2019-01-29T00:13:11.156Z,2.02
2019-01-29T00:13:15.446Z,2.04
2019-01-29T00:13:19.738Z,2.03
2019-01-29T00:13:23.931Z,2.03
2019-01-29T00:13:28.124Z,2.04
2019-01-29T00:13:32.407Z,2.04
2019-01-29T00:13:36.691Z,2.04
2019-01-29T00:13:40.987Z,2.04
2019-01-29T00:13:45.186Z,2.05
2019-01-29T00:13:49.468Z,2.04
2019-01-29T00:13:53.760Z,2.05
2019-01-29T00:13:58.053Z,2.04
2019-01-29T00:14:02.545Z,2.04
2019-01-29T00:14:06.840Z,2.04
2019-01-29T00:14:11.128Z,2.04
2019-01-29T00:14:15.324Z,2.05
2019-01-29T00:14:19.610Z,2.04
2019-01-29T00:14:23.907Z,2.04
2019-01-29T00:14:28.116Z,2.05
2019-01-29T00:14:32.410Z,2.04
2019-01-29T00:14:36.714Z,2.04
2019-01-29T00:14:40.999Z,2.04
2019-01-29T00:14:45.283Z,2.04
2019-01-29T00:14:49.572Z,2.05
2019-01-29T00:14:53.864Z,2.05
2019-01-29T00:14:58.153Z,2.03
2019-01-29T00:15:02.539Z,2.04
2019-01-29T00:15:06.835Z,2.05
2019-01-29T00:15:11.187Z,2.04
2019-01-29T00:15:15.380Z,2.03
2019-01-29T00:15:19.667Z,2.04
2019-01-29T00:15:23.971Z,2.03
2019-01-29T00:15:28.174Z,2.03
2019-01-29T00:15:32.467Z,2.04
2019-01-29T00:15:36.663Z,2.03
2019-01-29T00:15:40.960Z,2.03
2019-01-29T00:15:45.170Z,2.04
2019-01-29T00:15:49.264Z,2.03
2019-01-29T00:15:53.555Z,2.03
2019-01-29T00:15:57.838Z,2.04
2019-01-29T00:16:02.123Z,2.03
2019-01-29T00:16:06.329Z,2.04
2019-01-29T00:16:10.616Z,2.03
2019-01-29T00:16:14.810Z,2.03
2019-01-29T00:16:18.998Z,2.02
2019-01-29T00:16:23.096Z,2.03
2019-01-29T00:16:27.396Z,2.03
2019-01-29T00:16:31.691Z,2.03
2019-01-29T00:16:35.985Z,2.03
2019-01-29T00:16:40.274Z,2.03
2019-01-29T00:16:44.564Z,2.03
2019-01-29T00:16:48.933Z,2.02
2019-01-29T00:16:53.120Z,2.03
2019-01-29T00:16:57.402Z,2.03
2019-01-29T00:17:01.844Z,2.02
2019-01-29T00:17:06.136Z,2.02
2019-01-29T00:17:10.424Z,2.03
2019-01-29T00:17:14.713Z,2.03
2019-01-29T00:17:19.007Z,2.03
2019-01-29T00:17:23.194Z,2.02
2019-01-29T00:17:27.386Z,2.02
2019-01-29T00:17:31.675Z,2.02
2019-01-29T00:17:35.956Z,2.01
2019-01-29T00:17:40.307Z,2.03
2019-01-29T00:17:44.404Z,2.02
2019-01-29T00:17:48.703Z,2.01
2019-01-29T00:17:53.012Z,2.02
2019-01-29T00:17:57.303Z,2.02
2019-01-29T00:18:01.596Z,2.01
2019-01-29T00:18:05.896Z,2.02
2019-01-29T00:18:09.953Z,2.01
2019-01-29T00:18:14.147Z,2.03
2019-01-29T00:18:18.452Z,2.02
2019-01-29T00:18:22.748Z,2.03
2019-01-29T00:18:26.943Z,2.03
2019-01-29T00:18:31.230Z,2.04
2019-01-29T00:18:35.519Z,2.03
2019-01-29T00:18:39.713Z,2.03
2019-01-29T00:18:43.907Z,2.03
2019-01-29T00:18:48.192Z,2.04
2019-01-29T00:18:52.488Z,2.04
2019-01-29T00:18:56.789Z,2.03
2019-01-29T00:19:01.087Z,2.04
2019-01-29T00:19:05.380Z,2.04
2019-01-29T00:19:09.574Z,2.04
2019-01-29T00:19:13.868Z,2.04
2019-01-29T00:19:18.060Z,2.05
2019-01-29T00:19:22.365Z,2.04
2019-01-29T00:19:26.660Z,2.05
2019-01-29T00:19:30.946Z,2.05
2019-01-29T00:19:35.166Z,2.05
2019-01-29T00:19:39.465Z,2.07
2019-01-29T00:19:43.751Z,2.07
2019-01-29T00:19:48.041Z,2.05
2019-01-29T00:19:52.339Z,2.05
2019-01-29T00:19:56.539Z,2.06
2019-01-29T00:20:00.735Z,2.05
2019-01-29T00:20:05.089Z,2.06
2019-01-29T00:20:09.278Z,2.07
2019-01-29T00:20:13.386Z,2.05
2019-01-29T00:20:17.686Z,2.05
2019-01-29T00:20:21.977Z,2.06
2019-01-29T00:20:26.179Z,2.05
2019-01-29T00:20:30.368Z,2.06
2019-01-29T00:20:34.483Z,2.05
2019-01-29T00:20:38.672Z,2.05
2019-01-29T00:20:43.022Z,2.05
2019-01-29T00:20:47.361Z,2.06
2019-01-29T00:20:51.651Z,2.05
2019-01-29T00:20:55.947Z,2.05
2019-01-29T00:21:00.129Z,2.05
2019-01-29T00:21:04.419Z,2.05
2019-01-29T00:21:08.611Z,2.04
2019-01-29T00:21:12.906Z,2.05
2019-01-29T00:21:17.198Z,2.04
2019-01-29T00:21:21.490Z,2.04
2019-01-29T00:21:25.797Z,2.05
2019-01-29T00:21:30.080Z,2.03
2019-01-29T00:21:34.364Z,2.04
2019-01-29T00:21:38.658Z,2.03
2019-01-29T00:21:42.946Z,2.03
2019-01-29T00:21:47.247Z,2.03
2019-01-29T00:21:51.436Z,2.02
2019-01-29T00:21:55.726Z,2.02
2019-01-29T00:21:59.914Z,2.02
2019-01-29T00:22:04.107Z,2.01
2019-01-29T00:22:08.400Z,2.01
2019-01-29T00:22:12.682Z,2.01
2019-01-29T00:22:16.969Z,2.01
2019-01-29T00:22:21.162Z,2
2019-01-29T00:22:34.030Z,2.01
2019-01-29T00:22:38.227Z,2
2019-01-29T00:22:42.530Z,2.01
2019-01-29T00:22:46.823Z,2.01
2019-01-29T00:22:51.112Z,2.01
2019-01-29T00:22:55.401Z,2.01
2019-01-29T00:22:59.597Z,2.01
2019-01-29T00:23:03.794Z,2.01
2019-01-29T00:23:08.094Z,2.01
2019-01-29T00:23:12.390Z,2.01
2019-01-29T00:23:16.674Z,2.01
2019-01-29T00:23:20.962Z,2.02
2019-01-29T00:23:25.245Z,2.02
2019-01-29T00:23:29.534Z,2.01
2019-01-29T00:23:33.740Z,2.03
2019-01-29T00:23:38.034Z,2.03
2019-01-29T00:23:42.322Z,2.02
2019-01-29T00:23:46.610Z,2.02
2019-01-29T00:23:50.799Z,2.02
2019-01-29T00:23:55.101Z,2.02
2019-01-29T00:23:59.290Z,2.01
2019-01-29T00:24:03.506Z,2.01
2019-01-29T00:24:07.798Z,2.01
2019-01-29T00:24:12.094Z,2.01
2019-01-29T00:24:16.194Z,2.01
2019-01-29T00:24:20.381Z,1.99
2019-01-29T00:24:24.667Z,2.01
2019-01-29T00:24:28.976Z,2.02
2019-01-29T00:24:33.261Z,2
2019-01-29T00:24:37.622Z,2
2019-01-29T00:24:41.910Z,2.02
2019-01-29T00:24:46.115Z,2
2019-01-29T00:24:50.398Z,2.01
2019-01-29T00:24:54.681Z,2
2019-01-29T00:24:58.875Z,2
2019-01-29T00:25:03.246Z,2
2019-01-29T00:25:07.540Z,1.99
2019-01-29T00:25:11.849Z,2
2019-01-29T00:25:16.142Z,2
2019-01-29T00:25:20.427Z,2
2019-01-29T00:25:24.715Z,2.01
2019-01-29T00:25:28.914Z,2
2019-01-29T00:25:33.218Z,2
2019-01-29T00:25:37.410Z,2
2019-01-29T00:25:41.409Z,2.01
2019-01-29T00:25:45.702Z,2
2019-01-29T00:25:49.993Z,2
2019-01-29T00:25:54.283Z,2
2019-01-29T00:25:58.573Z,2
2019-01-29T00:26:02.907Z,2
2019-01-29T00:26:07.201Z,2.01
2019-01-29T00:26:11.485Z,2
2019-01-29T00:26:15.712Z,2.01
2019-01-29T00:26:20.001Z,1.99
2019-01-29T00:26:24.291Z,2.01
2019-01-29T00:26:28.505Z,2
2019-01-29T00:26:32.706Z,2.01
2019-01-29T00:26:37.006Z,2.01
2019-01-29T00:26:41.294Z,2.01
2019-01-29T00:26:45.401Z,2.01
2019-01-29T00:26:49.688Z,2
2019-01-29T00:26:54.042Z,2.01
2019-01-29T00:26:58.333Z,2
2019-01-29T00:27:02.678Z,2.01
2019-01-29T00:27:06.964Z,2.01
2019-01-29T00:27:11.157Z,2.01
2019-01-29T00:27:15.440Z,2.02
2019-01-29T00:27:19.733Z,2.02
2019-01-29T00:27:24.019Z,2.02
2019-01-29T00:27:28.309Z,2.02
2019-01-29T00:27:32.603Z,2.03
2019-01-29T00:27:36.896Z,2.03
2019-01-29T00:27:41.096Z,2.03
2019-01-29T00:27:45.348Z,2.04
2019-01-29T00:27:49.566Z,2.03
2019-01-29T00:27:53.853Z,2.03
2019-01-29T00:27:58.054Z,2.03
2019-01-29T00:28:02.261Z,2.03
2019-01-29T00:28:06.463Z,2.03
2019-01-29T00:28:10.653Z,2.03
2019-01-29T00:28:14.936Z,2.03
2019-01-29T00:28:19.129Z,2.04
2019-01-29T00:28:23.334Z,2.04
2019-01-29T00:28:27.530Z,2.04
2019-01-29T00:28:31.818Z,2.04
2019-01-29T00:28:36.014Z,2.04
2019-01-29T00:28:40.312Z,2.04
2019-01-29T00:28:44.612Z,2.05
2019-01-29T00:28:48.714Z,2.04
2019-01-29T00:28:52.962Z,2.05
2019-01-29T00:28:57.262Z,2.04
2019-01-29T00:29:01.550Z,2.05
2019-01-29T00:29:05.837Z,2.05
2019-01-29T00:29:10.130Z,2.06
2019-01-29T00:29:14.233Z,2.05
2019-01-29T00:29:18.526Z,2.06
2019-01-29T00:29:22.811Z,2.05
2019-01-29T00:29:27.103Z,2.05
2019-01-29T00:29:31.395Z,2.05
2019-01-29T00:29:35.687Z,2.05
2019-01-29T00:29:39.980Z,2.05
2019-01-29T00:29:44.273Z,2.05
2019-01-29T00:29:48.567Z,2.05
2019-01-29T00:29:52.859Z,2.05
2019-01-29T00:29:57.053Z,2.05
2019-01-29T00:30:01.345Z,2.05
2019-01-29T00:30:05.660Z,2.05
2019-01-29T00:30:09.951Z,2.05
2019-01-29T00:30:14.239Z,2.05
2019-01-29T00:30:18.534Z,2.05
2019-01-29T00:30:24.543Z,2.05
2019-01-29T00:30:28.936Z,2.05
2019-01-29T00:30:33.240Z,2.07
2019-01-29T00:30:37.441Z,2.07
2019-01-29T00:30:41.745Z,2.07
2019-01-29T00:30:45.937Z,2.07
2019-01-29T00:30:50.230Z,2.08
2019-01-29T00:30:54.515Z,2.08
2019-01-29T00:30:58.798Z,2.06
2019-01-29T00:31:02.995Z,2.07
2019-01-29T00:31:07.287Z,2.07
2019-01-29T00:31:11.574Z,2.07
2019-01-29T00:31:15.869Z,2.08
2019-01-29T00:31:20.059Z,2.08
2019-01-29T00:31:24.351Z,2.09
2019-01-29T00:31:28.547Z,2.09
2019-01-29T00:31:32.845Z,2.08
2019-01-29T00:31:37.147Z,2.08
2019-01-29T00:31:41.432Z,2.1
2019-01-29T00:31:45.721Z,2.09
2019-01-29T00:31:49.916Z,2.08
2019-01-29T00:31:54.114Z,2.09
2019-01-29T00:31:58.398Z,2.08
2019-01-29T00:32:02.685Z,2.08
2019-01-29T00:32:06.977Z,2.08
2019-01-29T00:32:11.266Z,2.08
2019-01-29T00:32:15.571Z,2.09
2019-01-29T00:32:19.862Z,2.08
2019-01-29T00:32:24.065Z,2.08
2019-01-29T00:32:28.352Z,2.09
2019-01-29T00:32:32.643Z,2.08
2019-01-29T00:32:36.836Z,2.08
2019-01-29T00:32:41.122Z,2.08
2019-01-29T00:32:45.429Z,2.08
2019-01-29T00:32:49.765Z,2.07
2019-01-29T00:32:54.066Z,2.08
2019-01-29T00:32:58.361Z,2.08
2019-01-29T00:33:02.723Z,2.08
2019-01-29T00:33:07.022Z,2.08
2019-01-29T00:33:11.308Z,2.08
2019-01-29T00:33:15.498Z,2.07
2019-01-29T00:33:19.798Z,2.05
2019-01-29T00:33:23.805Z,2.07
2019-01-29T00:33:28.097Z,2.07
2019-01-29T00:33:32.383Z,2.07
2019-01-29T00:33:36.680Z,2.08
2019-01-29T00:33:40.970Z,2.08
2019-01-29T00:33:45.258Z,2.08
2019-01-29T00:33:49.542Z,2.06
2019-01-29T00:33:53.837Z,2.08
2019-01-29T00:33:58.134Z,2.07
2019-01-29T00:34:02.426Z,2.09
2019-01-29T00:34:06.721Z,2.09
2019-01-29T00:34:11.059Z,2.08
2019-01-29T00:34:15.356Z,2.09
2019-01-29T00:34:19.647Z,2.08
2019-01-29T00:34:23.937Z,2.09
2019-01-29T00:34:28.231Z,2.08
2019-01-29T00:34:32.485Z,2.09
2019-01-29T00:34:36.776Z,2.1
2019-01-29T00:34:41.062Z,2.1
2019-01-29T00:34:45.258Z,2.09
2019-01-29T00:34:49.544Z,2.1
2019-01-29T00:34:53.831Z,2.09
2019-01-29T00:34:58.119Z,2.1
2019-01-29T00:35:02.425Z,2.1
2019-01-29T00:35:06.620Z,2.1
2019-01-29T00:35:10.910Z,2.1
2019-01-29T00:35:15.203Z,2.1
2019-01-29T00:35:19.514Z,2.1
2019-01-29T00:35:23.805Z,2.11
2019-01-29T00:35:28.002Z,2.11
2019-01-29T00:35:32.285Z,2.11
2019-01-29T00:35:36.476Z,2.11
2019-01-29T00:35:40.666Z,2.11
2019-01-29T00:35:44.952Z,2.12
2019-01-29T00:35:49.246Z,2.12
2019-01-29T00:35:53.437Z,2.11
2019-01-29T00:35:57.726Z,2.12
2019-01-29T00:36:02.008Z,2.12
2019-01-29T00:36:06.302Z,2.12
2019-01-29T00:36:10.597Z,2.12
2019-01-29T00:36:14.891Z,2.12
2019-01-29T00:36:19.179Z,2.11
2019-01-29T00:36:23.280Z,2.12
2019-01-29T00:36:27.575Z,2.11
2019-01-29T00:36:31.765Z,2.11
2019-01-29T00:36:36.054Z,2.11
2019-01-29T00:36:40.254Z,2.11
2019-01-29T00:36:44.446Z,2.11
2019-01-29T00:36:48.735Z,2.11
2019-01-29T00:36:52.925Z,2.1
2019-01-29T00:36:57.223Z,2.11
2019-01-29T00:37:01.410Z,2.11
2019-01-29T00:37:05.696Z,2.11
2019-01-29T00:37:10.006Z,2.11
2019-01-29T00:37:14.305Z,2.1
2019-01-29T00:37:18.592Z,2.11
2019-01-29T00:37:22.787Z,2.11
2019-01-29T00:37:27.144Z,2.11
2019-01-29T00:37:31.327Z,2.1
2019-01-29T00:37:35.627Z,2.1
2019-01-29T00:37:39.934Z,2.1
2019-01-29T00:37:44.243Z,2.11
2019-01-29T00:37:48.441Z,2.11
2019-01-29T00:37:52.729Z,2.1
2019-01-29T00:37:56.917Z,2.11
2019-01-29T00:38:01.212Z,2.1
2019-01-29T00:38:05.409Z,2.12
2019-01-29T00:38:09.700Z,2.12
2019-01-29T00:38:14.006Z,2.12
2019-01-29T00:38:18.292Z,2.11
2019-01-29T00:38:22.581Z,2.12
2019-01-29T00:38:26.689Z,2.12
2019-01-29T00:38:30.979Z,2.13
2019-01-29T00:38:35.271Z,2.12
2019-01-29T00:38:39.563Z,2.12
2019-01-29T00:38:43.852Z,2.13
2019-01-29T00:38:48.152Z,2.13
2019-01-29T00:38:52.345Z,2.13
2019-01-29T00:38:56.536Z,2.13
2019-01-29T00:39:00.843Z,2.13
2019-01-29T00:39:05.353Z,2.13
2019-01-29T00:39:09.665Z,2.14
2019-01-29T00:39:13.965Z,2.13
2019-01-29T00:39:18.081Z,2.13
2019-01-29T00:39:22.238Z,2.13
2019-01-29T00:39:26.530Z,2.13
2019-01-29T00:39:30.813Z,2.13
2019-01-29T00:39:35.105Z,2.13
2019-01-29T00:39:39.392Z,2.12
2019-01-29T00:39:43.391Z,2.12
2019-01-29T00:39:47.592Z,2.12
2019-01-29T00:39:51.881Z,2.11
2019-01-29T00:39:56.167Z,2.11
2019-01-29T00:40:00.454Z,2.12
2019-01-29T00:40:04.748Z,2.11
2019-01-29T00:40:09.037Z,2.1
2019-01-29T00:40:13.129Z,2.11
2019-01-29T00:40:17.416Z,2.11
2019-01-29T00:40:21.705Z,2.11
2019-01-29T00:40:25.993Z,2.12
2019-01-29T00:40:30.289Z,2.12
2019-01-29T00:40:34.582Z,2.11
2019-01-29T00:40:38.929Z,2.11
2019-01-29T00:40:43.220Z,2.11
2019-01-29T00:40:47.588Z,2.11
2019-01-29T00:40:51.784Z,2.12
2019-01-29T00:40:56.071Z,2.12
2019-01-29T00:41:00.361Z,2.12
2019-01-29T00:41:04.655Z,2.11
2019-01-29T00:41:08.746Z,2.13
2019-01-29T00:41:13.028Z,2.11
2019-01-29T00:41:17.117Z,2.12
2019-01-29T00:41:21.405Z,2.12
2019-01-29T00:41:25.592Z,2.12
2019-01-29T00:41:29.883Z,2.14
2019-01-29T00:41:34.177Z,2.11
2019-01-29T00:41:38.469Z,2.13
2019-01-29T00:41:42.766Z,2.13
2019-01-29T00:41:47.056Z,2.14
2019-01-29T00:41:51.340Z,2.14
2019-01-29T00:41:55.699Z,2.15
2019-01-29T00:41:59.983Z,2.14
2019-01-29T00:42:04.279Z,2.15
2019-01-29T00:42:08.565Z,2.14
2019-01-29T00:42:12.839Z,2.15
2019-01-29T00:42:16.930Z,2.15
2019-01-29T00:42:21.220Z,2.16
2019-01-29T00:42:25.310Z,2.15
2019-01-29T00:42:29.499Z,2.15
2019-01-29T00:42:33.782Z,2.16
2019-01-29T00:42:38.114Z,2.16
2019-01-29T00:42:42.394Z,2.16
2019-01-29T00:42:46.487Z,2.15
2019-01-29T00:42:50.853Z,2.15
2019-01-29T00:42:55.150Z,2.15
2019-01-29T00:42:59.437Z,2.17
2019-01-29T00:43:03.735Z,2.16
2019-01-29T00:43:07.937Z,2.16
2019-01-29T00:43:12.220Z,2.16
2019-01-29T00:43:16.415Z,2.17
2019-01-29T00:43:20.702Z,2.16
2019-01-29T00:43:24.901Z,2.16
2019-01-29T00:43:29.185Z,2.16
2019-01-29T00:43:33.477Z,2.16
2019-01-29T00:43:37.580Z,2.17
2019-01-29T00:43:41.870Z,2.17
2019-01-29T00:43:45.971Z,2.17
2019-01-29T00:43:50.163Z,2.17
2019-01-29T00:43:54.359Z,2.17
2019-01-29T00:43:58.557Z,2.16
2019-01-29T00:44:02.853Z,2.17
2019-01-29T00:44:07.038Z,2.17
2019-01-29T00:44:11.336Z,2.18
2019-01-29T00:44:15.634Z,2.18
2019-01-29T00:44:19.827Z,2.18
2019-01-29T00:44:23.829Z,2.18
2019-01-29T00:44:28.020Z,2.18
2019-01-29T00:44:32.218Z,2.17
2019-01-29T00:44:36.509Z,2.18
2019-01-29T00:44:40.801Z,2.17
2019-01-29T00:44:44.999Z,2.17
2019-01-29T00:44:49.285Z,2.17
2019-01-29T00:44:53.574Z,2.17
2019-01-29T00:44:57.786Z,2.17
2019-01-29T00:45:01.984Z,2.17
2019-01-29T00:45:06.419Z,2.17
2019-01-29T00:45:10.705Z,2.17
2019-01-29T00:45:14.992Z,2.17
2019-01-29T00:45:19.190Z,2.18
2019-01-29T00:45:23.303Z,2.18
2019-01-29T00:45:27.502Z,2.18
2019-01-29T00:45:31.698Z,2.18
2019-01-29T00:45:35.892Z,2.18
2019-01-29T00:45:39.988Z,2.18
2019-01-29T00:45:44.278Z,2.18
2019-01-29T00:45:48.563Z,2.18
2019-01-29T00:45:52.856Z,2.19
2019-01-29T00:45:56.958Z,2.18
2019-01-29T00:46:01.260Z,2.18
2019-01-29T00:46:05.362Z,2.18
2019-01-29T00:46:09.664Z,2.19
2019-01-29T00:46:13.850Z,2.2
2019-01-29T00:46:18.042Z,2.19
2019-01-29T00:46:22.328Z,2.19
2019-01-29T00:46:26.517Z,2.19
2019-01-29T00:46:30.707Z,2.19
2019-01-29T00:46:35.003Z,2.19
2019-01-29T00:46:39.210Z,2.19
2019-01-29T00:46:43.502Z,2.2
2019-01-29T00:46:47.698Z,2.19
2019-01-29T00:46:51.898Z,2.2
2019-01-29T00:46:56.189Z,2.2
2019-01-29T00:47:00.480Z,2.2
2019-01-29T00:47:04.763Z,2.19
2019-01-29T00:47:09.053Z,2.2
2019-01-29T00:47:13.349Z,2.2
2019-01-29T00:47:17.637Z,2.2
2019-01-29T00:47:21.926Z,2.2
2019-01-29T00:47:26.270Z,2.19
2019-01-29T00:47:30.567Z,2.2
2019-01-29T00:47:34.853Z,2.2
2019-01-29T00:47:39.140Z,2.2
2019-01-29T00:47:43.238Z,2.2
2019-01-29T00:47:47.530Z,2.2
2019-01-29T00:47:51.814Z,2.2
2019-01-29T00:47:56.106Z,2.2
2019-01-29T00:48:00.400Z,2.2
2019-01-29T00:48:04.743Z,2.2
2019-01-29T00:48:09.031Z,2.2
2019-01-29T00:48:13.329Z,2.2
2019-01-29T00:48:17.564Z,2.2
2019-01-29T00:48:21.865Z,2.2
2019-01-29T00:48:26.156Z,2.2
2019-01-29T00:48:30.450Z,2.2
2019-01-29T00:48:34.648Z,2.2
2019-01-29T00:48:38.840Z,2.2
2019-01-29T00:48:43.072Z,2.21
2019-01-29T00:48:47.362Z,2.21
2019-01-29T00:48:51.649Z,2.21
2019-01-29T00:48:55.938Z,2.2
2019-01-29T00:49:00.222Z,2.2
2019-01-29T00:49:04.505Z,2.2
2019-01-29T00:49:08.800Z,2.2
2019-01-29T00:49:12.993Z,2.2
2019-01-29T00:49:17.322Z,2.18
2019-01-29T00:49:23.510Z,2.19
2019-01-29T00:49:27.810Z,2.19
2019-01-29T00:49:32.169Z,2.19
2019-01-29T00:49:36.458Z,2.19
2019-01-29T00:49:40.649Z,2.18
2019-01-29T00:49:44.941Z,2.18
2019-01-29T00:49:49.229Z,2.19
2019-01-29T00:49:53.539Z,2.2
2019-01-29T00:49:57.734Z,2.2
2019-01-29T00:50:02.027Z,2.19
2019-01-29T00:50:06.321Z,2.18
2019-01-29T00:50:10.420Z,2.18
2019-01-29T00:50:14.716Z,2.18
2019-01-29T00:50:19.014Z,2.17
2019-01-29T00:50:23.211Z,2.18
2019-01-29T00:50:27.499Z,2.17
2019-01-29T00:50:31.792Z,2.17
2019-01-29T00:50:36.088Z,2.18
2019-01-29T00:50:40.288Z,2.17
2019-01-29T00:50:44.491Z,2.16
2019-01-29T00:50:48.786Z,2.17
2019-01-29T00:50:53.081Z,2.17
2019-01-29T00:50:57.340Z,2.17
2019-01-29T00:51:01.633Z,2.18
2019-01-29T00:51:05.923Z,2.16
2019-01-29T00:51:10.110Z,2.16
2019-01-29T00:51:14.310Z,2.17
2019-01-29T00:51:18.598Z,2.17
2019-01-29T00:51:22.925Z,2.17
2019-01-29T00:51:27.210Z,2.16
2019-01-29T00:51:31.555Z,2.17
2019-01-29T00:51:35.752Z,2.16
2019-01-29T00:51:39.842Z,2.16
2019-01-29T00:51:44.129Z,2.16
2019-01-29T00:51:48.417Z,2.16
2019-01-29T00:51:52.713Z,2.16
2019-01-29T00:51:57.002Z,2.15
2019-01-29T00:52:01.300Z,2.16
2019-01-29T00:52:05.596Z,2.16
2019-01-29T00:52:09.887Z,2.16
2019-01-29T00:52:13.979Z,2.16
2019-01-29T00:52:18.173Z,2.16
2019-01-29T00:52:22.465Z,2.16
2019-01-29T00:52:26.756Z,2.15
2019-01-29T00:52:30.949Z,2.15
2019-01-29T00:52:43.902Z,2.15
2019-01-29T00:52:48.098Z,2.14
2019-01-29T00:52:52.399Z,2.15
2019-01-29T00:52:56.498Z,2.15
2019-01-29T00:53:00.691Z,2.14
2019-01-29T00:53:04.997Z,2.15
2019-01-29T00:53:09.288Z,2.14
2019-01-29T00:53:13.594Z,2.14
2019-01-29T00:53:17.883Z,2.14
2019-01-29T00:53:22.174Z,2.15
2019-01-29T00:53:26.367Z,2.15
2019-01-29T00:53:30.655Z,2.15
2019-01-29T00:53:34.938Z,2.15
2019-01-29T00:53:39.029Z,2.16
2019-01-29T00:53:43.220Z,2.14
2019-01-29T00:53:47.510Z,2.15
2019-01-29T00:53:51.795Z,2.15
2019-01-29T00:53:56.095Z,2.14
2019-01-29T00:54:00.379Z,2.15
2019-01-29T00:54:04.826Z,2.15
2019-01-29T00:54:09.022Z,2.15
2019-01-29T00:54:13.313Z,2.15
2019-01-29T00:54:17.611Z,2.15
2019-01-29T00:54:21.809Z,2.16
2019-01-29T00:54:26.025Z,2.16
2019-01-29T00:54:30.316Z,2.16
2019-01-29T00:54:34.504Z,2.17
2019-01-29T00:54:38.789Z,2.16
2019-01-29T00:54:42.979Z,2.16
2019-01-29T00:54:47.264Z,2.16
2019-01-29T00:54:51.553Z,2.17
2019-01-29T00:54:55.752Z,2.18
2019-01-29T00:54:59.945Z,2.17
2019-01-29T00:55:04.201Z,2.17
2019-01-29T00:55:08.498Z,2.17
2019-01-29T00:55:12.796Z,2.17
2019-01-29T00:55:17.095Z,2.17
2019-01-29T00:55:21.285Z,2.17
2019-01-29T00:55:25.581Z,2.17
2019-01-29T00:55:29.778Z,2.17
2019-01-29T00:55:33.986Z,2.17
2019-01-29T00:55:38.338Z,2.17
2019-01-29T00:55:42.641Z,2.16
2019-01-29T00:55:47.003Z,2.16
2019-01-29T00:55:51.290Z,2.17
2019-01-29T00:55:55.585Z,2.16
2019-01-29T00:55:59.781Z,2.15
2019-01-29T00:56:04.074Z,2.15
2019-01-29T00:56:08.359Z,2.16
2019-01-29T00:56:12.643Z,2.16
2019-01-29T00:56:16.936Z,2.14
2019-01-29T00:56:21.228Z,2.15
2019-01-29T00:56:25.425Z,2.16
2019-01-29T00:56:29.713Z,2.15
2019-01-29T00:56:33.996Z,2.14
2019-01-29T00:56:38.091Z,2.15
2019-01-29T00:56:42.280Z,2.15
2019-01-29T00:56:46.178Z,2.16
2019-01-29T00:56:50.482Z,2.15
2019-01-29T00:56:54.674Z,2.14
2019-01-29T00:56:58.969Z,2.15
2019-01-29T00:57:03.170Z,2.15
2019-01-29T00:57:07.465Z,2.16
2019-01-29T00:57:11.662Z,2.15
2019-01-29T00:57:15.759Z,2.13
2019-01-29T00:57:19.961Z,2.14
2019-01-29T00:57:24.163Z,2.13
2019-01-29T00:57:28.463Z,2.13
2019-01-29T00:57:32.755Z,2.14
2019-01-29T00:57:37.065Z,2.14
2019-01-29T00:57:41.366Z,2.13
2019-01-29T00:57:45.575Z,2.14
2019-01-29T00:57:49.784Z,2.14
2019-01-29T00:57:54.076Z,2.14
2019-01-29T00:57:58.377Z,2.14
2019-01-29T00:58:02.874Z,2.13
2019-01-29T00:58:07.064Z,2.15